createdAt,value
2019-04-11T00:00:46.078Z,7.81
2019-04-11T00:01:48.566Z,7.80
2019-04-11T00:02:47.070Z,7.71
2019-04-11T00:03:46.061Z,7.69
2019-04-11T00:04:46.334Z,7.73
2019-04-11T00:05:46.025Z,7.74
2019-04-11T00:06:46.012Z,7.71
2019-04-11T00:07:46.740Z,7.74
2019-04-11T00:08:46.029Z,7.69
2019-04-11T00:09:47.808Z,7.68
2019-04-11T00:10:46.849Z,7.68
2019-04-11T00:11:46.172Z,7.66
2019-04-11T00:12:46.391Z,7.62
2019-04-11T00:13:45.952Z,7.68
2019-04-11T00:14:46.907Z,7.68
2019-04-11T00:15:45.911Z,7.71
2019-04-11T00:16:45.901Z,7.71
2019-04-11T00:17:46.021Z,7.68
2019-04-11T00:18:47.053Z,7.66
2019-04-11T00:19:45.949Z,7.55
2019-04-11T00:20:46.455Z,7.60
2019-04-11T00:21:46.769Z,7.55
2019-04-11T00:22:45.888Z,7.57
2019-04-11T00:23:46.101Z,7.58
2019-04-11T00:24:45.808Z,7.58
2019-04-11T00:25:45.813Z,7.55
2019-04-11T00:26:46.582Z,7.54
2019-04-11T00:27:45.790Z,7.52
2019-04-11T00:28:45.866Z,7.49
2019-04-11T00:29:46.887Z,7.34
2019-04-11T00:30:45.745Z,7.37
2019-04-11T00:31:46.960Z,7.39
2019-04-11T00:32:45.751Z,7.36
2019-04-11T00:33:46.641Z,7.37
2019-04-11T00:34:46.918Z,7.26
2019-04-11T00:35:46.024Z,7.24
2019-04-11T00:36:46.377Z,7.28
2019-04-11T00:37:45.678Z,7.33
2019-04-11T00:38:45.781Z,7.29
2019-04-11T00:39:45.856Z,7.31
2019-04-11T00:40:45.874Z,7.26
2019-04-11T00:41:46.031Z,7.28
2019-04-11T00:42:45.624Z,7.24
2019-04-11T00:43:46.804Z,7.28
2019-04-11T00:44:45.641Z,7.25
2019-04-11T00:45:45.665Z,7.34
2019-04-11T00:46:46.643Z,7.22
2019-04-11T00:47:45.566Z,7.25
2019-04-11T00:48:46.076Z,7.21
2019-04-11T00:49:46.447Z,7.25
2019-04-11T00:50:45.536Z,7.18
2019-04-11T00:51:45.553Z,7.22
2019-04-11T00:52:45.548Z,7.24
2019-04-11T00:53:46.514Z,7.21
2019-04-11T00:54:45.493Z,7.24
2019-04-11T00:55:53.599Z,7.11
2019-04-11T00:56:52.703Z,7.11
2019-04-11T00:57:53.092Z,7.11
2019-04-11T00:58:53.999Z,7.11
2019-04-11T00:59:53.026Z,7.13
2019-04-11T01:00:45.518Z,7.03
2019-04-11T01:01:55.100Z,7.08
2019-04-11T01:02:45.539Z,7.06
2019-04-11T01:03:53.704Z,7.04
2019-04-11T01:04:45.443Z,7.01
2019-04-11T01:05:45.726Z,7.07
2019-04-11T01:06:45.387Z,7.00
2019-04-11T01:07:45.474Z,6.99
2019-04-11T01:08:46.052Z,7.00
2019-04-11T01:09:45.439Z,7.04
2019-04-11T01:10:45.624Z,6.96
2019-04-11T01:11:45.810Z,6.97
2019-04-11T01:12:45.299Z,6.91
2019-04-11T01:13:50.891Z,6.92
2019-04-11T01:14:46.922Z,6.86
2019-04-11T01:15:45.261Z,6.89
2019-04-11T01:16:45.251Z,6.86
2019-04-11T01:17:45.474Z,6.88
2019-04-11T01:18:46.454Z,6.91
2019-04-11T01:19:53.201Z,6.89
2019-04-11T01:20:53.697Z,6.83
2019-04-11T01:21:45.203Z,6.89
2019-04-11T01:22:45.207Z,6.88
2019-04-11T01:23:45.182Z,6.91
2019-04-11T01:24:46.054Z,6.92
2019-04-11T01:25:52.785Z,6.89
2019-04-11T01:26:53.770Z,6.85
2019-04-11T01:27:54.335Z,6.82
2019-04-11T01:28:53.784Z,6.78
2019-04-11T01:29:53.715Z,6.81
2019-04-11T01:30:53.705Z,6.81
2019-04-11T01:31:53.855Z,6.78
2019-04-11T01:32:52.719Z,6.79
2019-04-11T01:33:53.932Z,6.82
2019-04-11T01:34:45.059Z,6.79
2019-04-11T01:35:45.728Z,6.86
2019-04-11T01:36:45.134Z,6.82
2019-04-11T01:37:46.073Z,6.78
2019-04-11T01:38:46.285Z,6.71
2019-04-11T01:39:45.338Z,6.82
2019-04-11T01:40:45.642Z,6.79
2019-04-11T01:41:44.978Z,6.78
2019-04-11T01:42:44.971Z,6.78
2019-04-11T01:43:53.431Z,6.71
2019-04-11T01:44:47.335Z,6.74
2019-04-11T01:45:45.561Z,6.67
2019-04-11T01:46:44.944Z,6.65
2019-04-11T01:47:44.947Z,6.67
2019-04-11T01:48:45.843Z,6.61
2019-04-11T01:49:46.020Z,6.67
2019-04-11T01:50:45.257Z,6.60
2019-04-11T01:51:45.566Z,6.63
2019-04-11T01:52:44.898Z,6.56
2019-04-11T01:53:44.945Z,6.64
2019-04-11T01:54:45.932Z,6.49
2019-04-11T01:55:45.093Z,6.50
2019-04-11T01:56:45.395Z,6.52
2019-04-11T01:57:44.811Z,6.38
2019-04-11T01:58:44.805Z,6.40
2019-04-11T01:59:45.810Z,6.45
2019-04-11T02:00:44.797Z,6.45
2019-04-11T02:01:45.187Z,6.47
2019-04-11T02:02:44.755Z,6.42
2019-04-11T02:03:45.602Z,6.42
2019-04-11T02:04:45.952Z,6.37
2019-04-11T02:05:45.343Z,6.42
2019-04-11T02:06:45.805Z,6.43
2019-04-11T02:07:44.902Z,6.47
2019-04-11T02:08:44.695Z,6.46
2019-04-11T02:09:44.703Z,6.42
2019-04-11T02:10:45.317Z,6.45
2019-04-11T02:11:45.686Z,6.45
2019-04-11T02:12:45.599Z,6.40
2019-04-11T02:13:44.639Z,6.43
2019-04-11T02:14:45.841Z,6.43
2019-04-11T02:15:44.646Z,6.43
2019-04-11T02:16:45.350Z,6.49
2019-04-11T02:17:44.633Z,6.43
2019-04-11T02:18:45.669Z,6.43
2019-04-11T02:19:44.792Z,6.34
2019-04-11T02:20:45.194Z,6.42
2019-04-11T02:21:44.555Z,6.46
2019-04-11T02:22:44.545Z,6.38
2019-04-11T02:23:45.477Z,6.35
2019-04-11T02:24:44.526Z,6.30
2019-04-11T02:25:44.936Z,6.28
2019-04-11T02:26:46.850Z,6.31
2019-04-11T02:27:44.487Z,6.35
2019-04-11T02:28:44.666Z,6.35
2019-04-11T02:29:44.816Z,6.38
2019-04-11T02:30:46.462Z,6.27
2019-04-11T02:31:44.652Z,6.31
2019-04-11T02:32:45.450Z,6.30
2019-04-11T02:33:44.427Z,6.34
2019-04-11T02:34:45.989Z,6.24
2019-04-11T02:35:46.386Z,6.28
2019-04-11T02:36:44.935Z,6.28
2019-04-11T02:37:46.353Z,6.30
2019-04-11T02:38:46.786Z,6.31
2019-04-11T02:39:47.125Z,6.24
2019-04-11T02:40:45.457Z,6.28
2019-04-11T02:41:44.671Z,6.16
2019-04-11T02:42:45.661Z,6.25
2019-04-11T02:43:44.716Z,6.19
2019-04-11T02:44:59.710Z,6.31
2019-04-11T02:46:54.437Z,6.27
2019-04-11T02:47:48.172Z,6.31
2019-04-11T02:48:44.937Z,6.25
2019-04-11T02:49:45.568Z,6.21
2019-04-11T02:50:45.732Z,6.27
2019-04-11T02:51:45.043Z,6.16
2019-04-11T02:52:44.456Z,6.24
2019-04-11T02:53:45.081Z,6.16
2019-04-11T02:54:45.173Z,6.19
2019-04-11T02:55:46.030Z,6.21
2019-04-11T02:56:45.565Z,6.21
2019-04-11T02:57:45.823Z,6.12
2019-04-11T02:58:44.381Z,6.12
2019-04-11T02:59:46.282Z,6.11
2019-04-11T03:00:45.042Z,6.08
2019-04-11T03:01:44.141Z,6.13
2019-04-11T03:02:44.607Z,6.09
2019-04-11T03:03:45.515Z,6.03
2019-04-11T03:04:45.854Z,6.02
2019-04-11T03:05:46.263Z,6.05
2019-04-11T03:06:45.660Z,6.06
2019-04-11T03:07:45.730Z,6.05
2019-04-11T03:08:44.482Z,6.03
2019-04-11T03:09:46.249Z,6.03
2019-04-11T03:10:45.509Z,6.02
2019-04-11T03:11:45.109Z,6.02
2019-04-11T03:12:46.012Z,5.95
2019-04-11T03:13:44.374Z,5.93
2019-04-11T03:15:01.916Z,5.93
2019-04-11T03:16:02.127Z,5.94
2019-04-11T03:16:56.253Z,5.94
2019-04-11T03:17:47.868Z,5.93
2019-04-11T03:18:59.205Z,5.94
2019-04-11T03:19:59.357Z,5.95
2019-04-11T03:20:49.771Z,5.94
2019-04-11T03:21:46.900Z,5.93
2019-04-11T03:22:45.330Z,5.80
2019-04-11T03:23:44.908Z,5.80
2019-04-11T03:24:44.110Z,5.77
2019-04-11T03:25:44.942Z,5.79
2019-04-11T03:26:45.558Z,5.84
2019-04-11T03:27:45.170Z,5.85
2019-04-11T03:28:49.057Z,5.87
2019-04-11T03:29:45.281Z,5.80
2019-04-11T03:31:04.140Z,5.87
2019-04-11T03:32:33.027Z,5.85
2019-04-11T03:35:41.226Z,5.82
2019-04-11T03:36:45.376Z,5.84
2019-04-11T03:37:23.456Z,5.87
2019-04-11T03:38:07.629Z,5.88
2019-04-11T03:39:07.622Z,5.82
2019-04-11T03:40:04.508Z,5.80
2019-04-11T03:41:00.457Z,5.76
2019-04-11T03:41:59.911Z,5.70
2019-04-11T03:43:00.312Z,5.69
2019-04-11T03:43:54.082Z,5.76
2019-04-11T03:44:50.215Z,5.72
2019-04-11T03:46:05.243Z,5.72
2019-04-11T03:47:01.293Z,5.72
2019-04-11T03:48:04.378Z,5.70
2019-04-11T03:48:55.823Z,5.62
2019-04-11T03:49:51.056Z,5.59
2019-04-11T03:50:46.223Z,5.73
2019-04-11T03:51:45.387Z,5.59
2019-04-11T03:52:45.052Z,5.66
2019-04-11T03:53:53.667Z,5.61
2019-04-11T03:54:51.319Z,5.65
2019-04-11T03:55:51.675Z,5.62
2019-04-11T03:56:51.732Z,5.62
2019-04-11T03:57:51.784Z,5.72
2019-04-11T03:58:43.882Z,5.76
2019-04-11T03:59:43.838Z,5.62
2019-04-11T04:00:44.549Z,5.73
2019-04-11T04:01:44.466Z,5.59
2019-04-11T04:02:44.438Z,5.65
2019-04-11T04:03:44.691Z,5.66
2019-04-11T04:04:44.157Z,5.54
2019-04-11T04:05:44.589Z,5.67
2019-04-11T04:06:44.020Z,5.58
2019-04-11T04:07:44.351Z,5.62
2019-04-11T04:08:44.483Z,5.66
2019-04-11T04:09:44.048Z,5.57
2019-04-11T04:10:43.711Z,5.58
2019-04-11T04:11:45.045Z,5.58
2019-04-11T04:12:45.191Z,5.65
2019-04-11T04:13:45.398Z,5.61
2019-04-11T04:14:45.269Z,5.54
2019-04-11T04:15:55.729Z,5.62
2019-04-11T04:16:48.305Z,5.51
2019-04-11T04:17:45.582Z,5.61
2019-04-11T04:18:51.712Z,5.55
2019-04-11T04:19:51.994Z,5.55
2019-04-11T04:20:43.882Z,5.59
2019-04-11T04:21:43.507Z,5.54
2019-04-11T04:22:44.082Z,5.50
2019-04-11T04:23:43.486Z,5.54
2019-04-11T04:24:45.444Z,5.58
2019-04-11T04:25:46.688Z,5.50
2019-04-11T04:26:43.276Z,5.50
2019-04-11T04:27:45.028Z,5.55
2019-04-11T04:28:43.176Z,5.54
2019-04-11T04:29:46.741Z,5.52
2019-04-11T04:30:45.328Z,5.51
2019-04-11T04:31:43.174Z,5.57
2019-04-11T04:32:44.957Z,5.48
2019-04-11T04:33:43.226Z,5.40
2019-04-11T04:34:44.351Z,5.43
2019-04-11T04:35:44.755Z,5.44
2019-04-11T04:36:43.101Z,5.50
2019-04-11T04:37:43.869Z,5.52
2019-04-11T04:38:44.549Z,5.44
2019-04-11T04:39:43.568Z,5.47
2019-04-11T04:40:55.506Z,5.41
2019-04-11T04:41:53.084Z,5.34
2019-04-11T04:42:47.919Z,5.34
2019-04-11T04:43:44.474Z,5.33
2019-04-11T04:44:45.169Z,5.36
2019-04-11T04:46:07.475Z,5.36
2019-04-11T04:46:58.211Z,5.34
2019-04-11T04:47:51.448Z,5.33
2019-04-11T04:48:45.477Z,5.36
2019-04-11T04:49:43.706Z,5.32
2019-04-11T04:50:44.616Z,5.34
2019-04-11T04:51:43.684Z,5.32
2019-04-11T04:52:42.988Z,5.36
2019-04-11T04:53:43.092Z,5.33
2019-04-11T04:54:44.363Z,5.36
2019-04-11T04:55:43.628Z,5.32
2019-04-11T04:56:43.715Z,5.37
2019-04-11T04:57:43.454Z,5.36
2019-04-11T04:58:44.372Z,5.40
2019-04-11T04:59:42.831Z,5.33
2019-04-11T05:00:43.668Z,5.36
2019-04-11T05:01:44.258Z,5.32
2019-04-11T05:02:44.144Z,5.32
2019-04-11T05:03:44.503Z,5.32
2019-04-11T05:04:43.652Z,5.33
2019-04-11T05:05:44.301Z,5.41
2019-04-11T05:06:46.692Z,5.39
2019-04-11T05:07:46.015Z,5.41
2019-04-11T05:08:43.126Z,5.40
2019-04-11T05:09:42.775Z,5.36
2019-04-11T05:10:42.743Z,5.43
2019-04-11T05:11:42.703Z,5.44
2019-04-11T05:12:43.911Z,5.44
2019-04-11T05:13:45.150Z,5.47
2019-04-11T05:14:43.672Z,5.55
2019-04-11T05:15:43.682Z,5.41
2019-04-11T05:16:44.031Z,5.54
2019-04-11T05:17:44.411Z,5.44
2019-04-11T05:18:42.643Z,5.51
2019-04-11T05:19:42.614Z,5.51
2019-04-11T05:20:42.601Z,5.48
2019-04-11T05:21:43.605Z,5.51
2019-04-11T05:22:43.640Z,5.50
2019-04-11T05:23:42.712Z,5.54
2019-04-11T05:24:43.384Z,5.65
2019-04-11T05:25:42.588Z,5.54
2019-04-11T05:26:50.402Z,5.50
2019-04-11T05:27:51.160Z,5.54
2019-04-11T05:28:51.559Z,5.55
2019-04-11T05:29:51.571Z,5.51
2019-04-11T05:30:42.508Z,5.59
2019-04-11T05:31:42.777Z,5.50
2019-04-11T05:32:42.563Z,5.51
2019-04-11T05:33:43.469Z,5.54
2019-04-11T05:34:43.500Z,5.52
2019-04-11T05:35:43.705Z,5.54
2019-04-11T05:36:42.861Z,5.62
2019-04-11T05:37:42.941Z,5.58
2019-04-11T05:38:42.406Z,5.61
2019-04-11T05:39:42.510Z,5.66
2019-04-11T05:40:42.421Z,5.59
2019-04-11T05:41:45.365Z,5.62
2019-04-11T05:42:42.370Z,5.67
2019-04-11T05:43:42.377Z,5.70
2019-04-11T05:44:43.180Z,5.85
2019-04-11T05:45:42.366Z,5.85
2019-04-11T05:46:53.241Z,5.80
2019-04-11T05:47:43.506Z,5.90
2019-04-11T05:48:43.003Z,5.80
2019-04-11T05:49:43.508Z,5.85
2019-04-11T05:50:45.427Z,5.77
2019-04-11T05:51:47.120Z,5.87
2019-04-11T05:52:42.252Z,5.88
2019-04-11T05:53:42.243Z,5.85
2019-04-11T05:54:46.425Z,5.90
2019-04-11T05:55:45.816Z,5.95
2019-04-11T05:56:42.208Z,6.03
2019-04-11T05:57:43.100Z,6.02
2019-04-11T05:58:45.171Z,6.00
2019-04-11T05:59:43.335Z,6.05
2019-04-11T06:00:42.270Z,6.00
2019-04-11T06:01:42.493Z,6.02
2019-04-11T06:02:43.457Z,6.00
2019-04-11T06:03:43.837Z,6.09
2019-04-11T06:04:42.730Z,6.02
2019-04-11T06:05:43.131Z,6.03
2019-04-11T06:06:42.097Z,6.09
2019-04-11T06:07:46.205Z,6.15
2019-04-11T06:08:44.170Z,6.15
2019-04-11T06:09:42.097Z,6.13
2019-04-11T06:10:43.666Z,6.24
2019-04-11T06:11:43.120Z,6.25
2019-04-11T06:12:42.034Z,6.31
2019-04-11T06:13:42.774Z,6.25
2019-04-11T06:14:42.011Z,6.30
2019-04-11T06:15:43.925Z,6.42
2019-04-11T06:16:47.280Z,6.43
2019-04-11T06:17:42.984Z,6.40
2019-04-11T06:18:45.078Z,6.34
2019-04-11T06:19:41.966Z,6.42
2019-04-11T06:20:43.046Z,6.38
2019-04-11T06:21:42.244Z,6.46
2019-04-11T06:22:42.197Z,6.46
2019-04-11T06:23:41.916Z,6.47
2019-04-11T06:24:42.617Z,6.42
2019-04-11T06:25:44.537Z,6.49
2019-04-11T06:26:42.883Z,6.50
2019-04-11T06:27:42.860Z,6.57
2019-04-11T06:28:42.391Z,6.55
2019-04-11T06:29:43.072Z,6.65
2019-04-11T06:30:42.327Z,6.60
2019-04-11T06:31:42.339Z,6.64
2019-04-11T06:32:41.818Z,6.73
2019-04-11T06:33:42.852Z,6.75
2019-04-11T06:34:41.833Z,6.68
2019-04-11T06:35:42.072Z,6.68
2019-04-11T06:36:41.779Z,6.67
2019-04-11T06:37:41.801Z,6.74
2019-04-11T06:38:42.812Z,6.73
2019-04-11T06:39:41.745Z,6.78
2019-04-11T06:40:41.915Z,6.85
2019-04-11T06:41:42.958Z,6.88
2019-04-11T06:42:41.727Z,6.85
2019-04-11T06:43:42.583Z,6.88
2019-04-11T06:44:41.741Z,6.97
2019-04-11T06:45:41.876Z,6.97
2019-04-11T06:46:51.695Z,6.99
2019-04-11T06:47:43.104Z,7.10
2019-04-11T06:48:49.635Z,7.13
2019-04-11T06:49:49.381Z,7.15
2019-04-11T06:50:41.706Z,7.16
2019-04-11T06:51:41.643Z,7.16
2019-04-11T06:52:41.647Z,7.29
2019-04-11T06:53:42.072Z,7.24
2019-04-11T06:54:41.667Z,7.25
2019-04-11T06:55:42.667Z,7.31
2019-04-11T06:56:41.592Z,7.34
2019-04-11T06:57:42.423Z,7.49
2019-04-11T06:58:41.646Z,7.47
2019-04-11T06:59:42.827Z,7.37
2019-04-11T07:00:41.526Z,7.57
2019-04-11T07:01:42.521Z,7.50
2019-04-11T07:02:41.520Z,7.64
2019-04-11T07:03:41.554Z,7.64
2019-04-11T07:04:41.882Z,7.68
2019-04-11T07:05:42.636Z,7.78
2019-04-11T07:06:41.888Z,7.76
2019-04-11T07:07:41.497Z,7.74
2019-04-11T07:08:42.623Z,7.80
2019-04-11T07:09:41.465Z,7.88
2019-04-11T07:10:42.467Z,7.95
2019-04-11T07:11:42.597Z,7.98
2019-04-11T07:12:42.672Z,8.02
2019-04-11T07:13:41.377Z,8.05
2019-04-11T07:14:41.368Z,8.09
2019-04-11T07:15:41.355Z,8.09
2019-04-11T07:16:42.569Z,8.16
2019-04-11T07:17:41.355Z,8.19
2019-04-11T07:18:41.325Z,8.20
2019-04-11T07:19:41.540Z,8.23
2019-04-11T07:20:41.442Z,8.28
2019-04-11T07:21:41.915Z,8.39
2019-04-11T07:22:41.327Z,8.44
2019-04-11T07:23:51.191Z,8.44
2019-04-11T07:24:41.260Z,8.39
2019-04-11T07:25:48.785Z,8.38
2019-04-11T07:26:41.637Z,8.46
2019-04-11T07:27:41.228Z,8.47
2019-04-11T07:28:41.636Z,8.38
2019-04-11T07:29:42.176Z,8.53
2019-04-11T07:30:41.691Z,8.53
2019-04-11T07:31:41.185Z,8.67
2019-04-11T07:32:41.172Z,8.60
2019-04-11T07:33:41.181Z,8.59
2019-04-11T07:34:41.285Z,8.70
2019-04-11T07:35:42.012Z,8.75
2019-04-11T07:36:41.147Z,8.70
2019-04-11T07:37:41.188Z,8.74
2019-04-11T07:38:41.199Z,8.65
2019-04-11T07:39:44.498Z,8.83
2019-04-11T07:40:41.307Z,8.88
2019-04-11T07:41:41.763Z,8.92
2019-04-11T07:42:41.236Z,8.96
2019-04-11T07:43:41.189Z,8.93
2019-04-11T07:44:41.084Z,9.06
2019-04-11T07:45:41.793Z,8.99
2019-04-11T07:46:41.071Z,9.06
2019-04-11T07:47:41.601Z,8.98
2019-04-11T07:48:41.001Z,8.90
2019-04-11T07:49:41.032Z,8.98
2019-04-11T07:50:42.191Z,9.06
2019-04-11T07:51:40.985Z,9.18
2019-04-11T07:52:40.959Z,9.09
2019-04-11T07:53:40.949Z,9.14
2019-04-11T07:54:41.065Z,8.98
2019-04-11T07:55:42.229Z,9.06
2019-04-11T07:56:41.914Z,9.08
2019-04-11T07:57:40.904Z,9.09
2019-04-11T07:58:42.026Z,9.08
2019-04-11T07:59:41.893Z,9.11
2019-04-11T08:00:44.923Z,9.12
2019-04-11T08:01:42.521Z,9.18
2019-04-11T08:02:40.851Z,9.24
2019-04-11T08:03:40.840Z,9.22
2019-04-11T08:04:40.876Z,9.23
2019-04-11T08:05:41.055Z,9.32
2019-04-11T08:06:41.158Z,9.34
2019-04-11T08:07:40.820Z,9.34
2019-04-11T08:08:41.219Z,9.34
2019-04-11T08:09:41.590Z,9.40
2019-04-11T08:10:41.475Z,9.44
2019-04-11T08:11:40.754Z,9.51
2019-04-11T08:12:41.436Z,9.51
2019-04-11T08:13:40.825Z,9.51
2019-04-11T08:14:40.725Z,9.54
2019-04-11T08:15:41.858Z,9.60
2019-04-11T08:16:40.708Z,9.69
2019-04-11T08:17:42.934Z,9.73
2019-04-11T08:18:41.137Z,9.80
2019-04-11T08:19:40.816Z,9.85
2019-04-11T08:20:41.580Z,9.85
2019-04-11T08:21:40.644Z,9.88
2019-04-11T08:22:41.316Z,9.85
2019-04-11T08:23:40.621Z,9.85
2019-04-11T08:24:40.780Z,9.78
2019-04-11T08:25:41.789Z,9.81
2019-04-11T08:26:40.664Z,9.90
2019-04-11T08:27:52.093Z,9.94
2019-04-11T08:28:41.565Z,10.02
2019-04-11T08:29:40.567Z,10.09
2019-04-11T08:30:41.526Z,10.05
2019-04-11T08:31:40.566Z,10.08
2019-04-11T08:32:40.529Z,10.10
2019-04-11T08:33:40.597Z,10.14
2019-04-11T08:34:41.629Z,10.20
2019-04-11T08:35:40.601Z,10.14
2019-04-11T08:36:40.504Z,10.05
2019-04-11T08:37:40.467Z,9.96
2019-04-11T08:38:40.639Z,10.10
2019-04-11T08:39:41.490Z,10.20
2019-04-11T08:40:40.441Z,10.16
2019-04-11T08:41:40.448Z,10.20
2019-04-11T08:42:40.778Z,10.31
2019-04-11T08:43:41.484Z,10.34
2019-04-11T08:44:40.414Z,10.43
2019-04-11T08:45:40.418Z,10.48
2019-04-11T08:46:40.394Z,10.55
2019-04-11T08:47:46.996Z,10.61
2019-04-11T08:48:42.780Z,10.72
2019-04-11T08:49:41.550Z,10.73
2019-04-11T08:50:40.823Z,10.94
2019-04-11T08:51:41.160Z,11.05
2019-04-11T08:52:40.415Z,11.05
2019-04-11T08:53:40.645Z,11.11
2019-04-11T08:54:40.283Z,11.18
2019-04-11T08:55:49.746Z,11.22
2019-04-11T08:59:00.642Z,11.31
2019-04-11T09:00:08.219Z,11.37
2019-04-11T09:01:00.677Z,11.30
2019-04-11T09:02:08.711Z,11.16
2019-04-11T09:03:07.321Z,11.11
2019-04-11T09:04:05.202Z,11.16
2019-04-11T09:05:06.951Z,11.20
2019-04-11T09:06:02.716Z,11.23
2019-04-11T09:06:59.686Z,11.33
2019-04-11T09:08:00.179Z,11.40
2019-04-11T09:08:59.715Z,11.61
2019-04-11T09:09:59.861Z,11.69
2019-04-11T09:11:00.188Z,11.87
2019-04-11T09:12:00.403Z,11.93
2019-04-11T09:13:00.567Z,12.04
2019-04-11T09:13:59.814Z,11.99
2019-04-11T09:15:07.077Z,12.23
2019-04-11T09:15:59.529Z,13.36
2019-04-11T09:17:08.546Z,13.38
2019-04-11T09:18:09.522Z,13.60
2019-04-11T09:19:01.098Z,14.87
2019-04-11T09:20:08.047Z,16.05
2019-04-11T09:21:07.831Z,16.70
2019-04-11T09:22:08.837Z,17.25
2019-04-11T09:23:07.007Z,17.65
2019-04-11T09:24:08.255Z,18.08
2019-04-11T09:25:07.299Z,17.71
2019-04-11T09:26:07.586Z,18.41
2019-04-11T09:27:08.676Z,18.96
2019-04-11T09:28:06.998Z,19.35
2019-04-11T09:28:59.838Z,19.59
2019-04-11T09:29:59.376Z,19.82
2019-04-11T09:30:59.363Z,20.36
2019-04-11T09:32:00.130Z,20.71
2019-04-11T09:33:00.327Z,20.88
2019-04-11T09:33:59.561Z,20.50
2019-04-11T09:34:59.808Z,20.68
2019-04-11T09:35:59.769Z,20.42
2019-04-11T09:36:59.306Z,20.67
2019-04-11T09:38:00.168Z,21.40
2019-04-11T09:38:59.290Z,22.13
2019-04-11T09:39:59.389Z,22.19
2019-04-11T09:41:00.445Z,22.11
2019-04-11T09:41:59.253Z,22.41
2019-04-11T09:42:59.665Z,22.96
2019-04-11T09:44:00.157Z,23.64
2019-04-11T09:44:59.432Z,23.70
2019-04-11T09:45:59.773Z,23.39
2019-04-11T09:46:59.242Z,22.67
2019-04-11T09:48:08.513Z,21.65
2019-04-11T09:49:00.181Z,22.21
2019-04-11T09:50:00.058Z,22.03
2019-04-11T09:50:59.150Z,21.71
2019-04-11T09:52:00.329Z,21.62
2019-04-11T09:52:59.161Z,21.65
2019-04-11T09:53:59.250Z,21.58
2019-04-11T09:54:59.110Z,21.51
2019-04-11T09:55:59.105Z,21.26
2019-04-11T09:57:00.136Z,21.01
2019-04-11T09:58:00.129Z,21.04
2019-04-11T09:59:00.187Z,21.19
2019-04-11T09:59:59.056Z,20.85
2019-04-11T10:00:59.440Z,20.58
2019-04-11T10:02:00.232Z,20.63
2019-04-11T10:02:59.024Z,20.19
2019-04-11T10:03:59.465Z,19.93
2019-04-11T10:05:01.374Z,19.84
2019-04-11T10:05:58.992Z,19.84
2019-04-11T10:06:59.196Z,19.26
2019-04-11T10:08:00.008Z,18.75
2019-04-11T10:08:59.763Z,18.76
2019-04-11T10:10:00.150Z,18.75
2019-04-11T10:10:59.655Z,18.64
2019-04-11T10:11:59.122Z,18.85
2019-04-11T10:12:58.923Z,18.89
2019-04-11T10:13:59.566Z,18.86
2019-04-11T10:14:58.901Z,18.89
2019-04-11T10:15:59.775Z,18.64
2019-04-11T10:17:00.166Z,18.34
2019-04-11T10:17:59.075Z,18.33
2019-04-11T10:18:59.808Z,18.18
2019-04-11T10:20:00.038Z,18.26
2019-04-11T10:20:59.281Z,18.15
2019-04-11T10:21:58.849Z,18.06
2019-04-11T10:22:58.833Z,17.88
2019-04-11T10:23:58.990Z,17.73
2019-04-11T10:24:58.931Z,17.49
2019-04-11T10:25:59.373Z,17.54
2019-04-11T10:26:58.854Z,17.62
2019-04-11T10:27:58.767Z,17.69
2019-04-11T10:28:58.771Z,17.83
2019-04-11T10:29:59.030Z,17.68
2019-04-11T10:30:58.926Z,17.46
2019-04-11T10:31:59.051Z,17.46
2019-04-11T10:32:59.386Z,17.31
2019-04-11T10:33:59.546Z,17.35
2019-04-11T10:34:59.690Z,17.41
2019-04-11T10:35:58.950Z,17.20
2019-04-11T10:36:59.177Z,16.88
2019-04-11T10:37:58.669Z,16.73
2019-04-11T10:38:58.660Z,16.62
2019-04-11T10:39:59.822Z,16.59
2019-04-11T10:40:58.759Z,16.58
2019-04-11T10:41:58.648Z,16.39
2019-04-11T10:42:58.641Z,16.43
2019-04-11T10:43:59.437Z,16.49
2019-04-11T10:44:58.619Z,16.69
2019-04-11T10:45:58.849Z,16.72
2019-04-11T10:46:59.774Z,16.62
2019-04-11T10:47:58.564Z,16.57
2019-04-11T10:48:58.545Z,16.62
2019-04-11T10:49:58.773Z,16.70
2019-04-11T10:50:58.541Z,16.74
2019-04-11T10:51:58.519Z,16.79
2019-04-11T10:52:58.553Z,16.83
2019-04-11T10:53:59.594Z,17.06
2019-04-11T10:54:58.483Z,17.28
2019-04-11T10:55:58.487Z,17.17
2019-04-11T10:56:58.454Z,16.77
2019-04-11T10:57:58.451Z,16.74
2019-04-11T10:58:59.514Z,16.98
2019-04-11T10:59:58.689Z,16.90
2019-04-11T11:00:58.451Z,16.94
2019-04-11T11:01:58.404Z,16.94
2019-04-11T11:02:58.408Z,17.12
2019-04-11T11:03:59.021Z,17.24
2019-04-11T11:04:59.028Z,17.35
2019-04-11T11:05:59.581Z,17.27
2019-04-11T11:06:58.416Z,17.43
2019-04-11T11:07:59.266Z,17.45
2019-04-11T11:08:58.328Z,17.46
2019-04-11T11:09:58.758Z,17.35
2019-04-11T11:10:58.339Z,17.25
2019-04-11T11:11:58.844Z,17.02
2019-04-11T11:12:59.399Z,16.82
2019-04-11T11:13:58.449Z,16.76
2019-04-11T11:14:58.812Z,16.73
2019-04-11T11:15:58.283Z,16.69
2019-04-11T11:16:58.886Z,16.80
2019-04-11T11:18:31.921Z,16.99
2019-04-11T11:19:26.223Z,16.94
2019-04-11T11:20:12.042Z,17.06
2019-04-11T11:21:02.291Z,17.07
2019-04-11T11:22:00.444Z,17.10
2019-04-11T11:22:58.177Z,17.02
2019-04-11T11:23:58.588Z,17.09
2019-04-11T11:24:58.155Z,17.20
2019-04-11T11:25:58.499Z,17.16
2019-04-11T11:27:00.034Z,17.09
2019-04-11T11:27:58.149Z,16.97
2019-04-11T11:29:00.512Z,16.83
2019-04-11T11:30:01.635Z,16.80
2019-04-11T11:30:58.472Z,16.80
2019-04-11T11:31:58.137Z,16.79
2019-04-11T11:32:58.215Z,16.80
2019-04-11T11:33:58.819Z,16.84
2019-04-11T11:34:59.032Z,16.80
2019-04-11T11:36:01.060Z,16.98
2019-04-11T11:36:58.609Z,17.10
2019-04-11T11:37:58.033Z,17.06
2019-04-11T11:38:58.393Z,17.13
2019-04-11T11:40:02.729Z,17.24
2019-04-11T11:40:59.023Z,17.43
2019-04-11T11:41:57.985Z,17.72
2019-04-11T11:42:58.769Z,17.71
2019-04-11T11:43:59.194Z,17.65
2019-04-11T11:44:57.939Z,17.71
2019-04-11T11:45:58.919Z,17.69
2019-04-11T11:47:00.796Z,17.72
2019-04-11T11:47:59.676Z,17.49
2019-04-11T11:48:59.707Z,17.52
2019-04-11T11:50:01.566Z,17.47
2019-04-11T11:50:59.177Z,17.20
2019-04-11T11:51:58.463Z,16.83
2019-04-11T11:52:57.877Z,16.72
2019-04-11T11:53:57.834Z,16.76
2019-04-11T11:54:57.822Z,16.72
2019-04-11T11:55:57.952Z,16.74
2019-04-11T11:56:58.228Z,16.79
2019-04-11T11:57:57.819Z,16.79
2019-04-11T11:58:59.306Z,16.91
2019-04-11T11:59:58.739Z,17.25
2019-04-11T12:01:01.174Z,17.35
2019-04-11T12:01:58.764Z,17.59
2019-04-11T12:02:58.918Z,17.69
2019-04-11T12:04:00.512Z,17.54
2019-04-11T12:04:58.714Z,17.49
2019-04-11T12:05:59.065Z,17.53
2019-04-11T12:07:02.090Z,17.63
2019-04-11T12:07:59.256Z,17.46
2019-04-11T12:08:58.219Z,17.31
2019-04-11T12:11:26.133Z,17.20
2019-04-11T12:12:24.889Z,17.20
2019-04-11T12:13:24.859Z,17.10
2019-04-11T12:14:24.827Z,17.25
2019-04-11T12:15:26.837Z,17.19
2019-04-11T12:16:25.924Z,17.24
2019-04-11T12:17:24.938Z,17.22
2019-04-11T12:18:24.794Z,17.24
2019-04-11T12:19:24.873Z,17.14
2019-04-11T12:20:32.307Z,17.25
2019-04-11T12:21:27.842Z,17.57
2019-04-11T12:22:24.780Z,17.75
2019-04-11T12:23:25.902Z,17.90
2019-04-11T12:24:25.249Z,17.91
2019-04-11T12:25:25.098Z,18.01
2019-04-11T12:26:28.797Z,18.08
2019-04-11T12:27:26.838Z,18.08
2019-04-11T12:28:25.686Z,18.09
2019-04-11T12:29:24.682Z,17.91
2019-04-11T12:30:29.155Z,17.72
2019-04-11T12:31:25.966Z,17.72
2019-04-11T12:32:24.642Z,17.66
2019-04-11T12:33:25.661Z,17.69
2019-04-11T12:34:24.609Z,17.57
2019-04-11T12:35:25.858Z,17.65
2019-04-11T12:36:24.586Z,17.54
2019-04-11T12:37:25.285Z,17.53
2019-04-11T12:38:25.208Z,17.37
2019-04-11T12:39:25.280Z,17.37
2019-04-11T12:40:24.554Z,17.46
2019-04-11T12:41:24.533Z,17.38
2019-04-11T12:42:24.523Z,17.22
2019-04-11T12:43:24.551Z,17.20
2019-04-11T12:44:26.742Z,17.22
2019-04-11T12:45:24.488Z,17.28
2019-04-11T12:46:29.817Z,17.32
2019-04-11T12:47:25.475Z,17.32
2019-04-11T12:48:24.489Z,17.45
2019-04-11T12:49:31.989Z,17.43
2019-04-11T12:50:33.009Z,17.49
2019-04-11T12:51:34.347Z,17.54
2019-04-11T12:52:31.966Z,17.94
2019-04-11T12:53:24.420Z,17.81
2019-04-11T12:54:24.393Z,17.93
2019-04-11T12:55:24.385Z,17.71
2019-04-11T12:56:24.381Z,17.69
2019-04-11T12:57:24.364Z,17.52
2019-04-11T12:58:24.382Z,17.43
2019-04-11T12:59:24.339Z,17.28
2019-04-11T13:00:24.336Z,17.32
2019-04-11T13:01:24.315Z,17.25
2019-04-11T13:02:24.311Z,17.13
2019-04-11T13:03:24.383Z,17.06
2019-04-11T13:04:24.286Z,16.87
2019-04-11T13:05:24.277Z,16.49
2019-04-11T13:06:34.900Z,16.43
2019-04-11T13:07:25.288Z,15.95
2019-04-11T13:08:24.247Z,16.02
2019-04-11T13:09:24.264Z,15.83
2019-04-11T13:10:24.317Z,15.80
2019-04-11T13:11:24.253Z,15.83
2019-04-11T13:12:24.247Z,15.87
2019-04-11T13:13:24.191Z,15.88
2019-04-11T13:14:24.223Z,15.95
2019-04-11T13:15:24.198Z,16.13
2019-04-11T13:16:24.165Z,16.24